Long Xiang 606 — 9GMZ — position and weather

sailwx.info

Track history (hours):
 
Tides and Currents Weather Stations Pressure Air Temp Water Temp Dewpoint Dewpoint Depression Visibility Wind Speed Wind Dir Waves Ship Positions

Long Xiang 606

Last reported at 2017-Sep-16 23:39 UTC. Time now 2017-Sep-25 06:13 UTC.
Position N 05°34' E 000°06'.
Warning: this ship's position is 8 days out of date.

Length 43 m.

Type: Fishing. MMSI: 627220000.

Date/timePositionNaut miles runAvg speedWind from/ knotsBaromVisibWave heightAir tempDewpointWater temp
2017-Sep-16 23:39N 05°34' E 000°06'0 2.5
2017-Sep-16 23:27N 05°34' E 000°05'1 1.5
2017-Sep-16 22:59N 05°34' E 000°05'2 4.4
2017-Sep-16 22:30N 05°33' E 000°03'3 0.6
2017-Sep-16 17:52N 05°36' E 000°05'3 9.8
2017-Sep-16 17:31N 05°37' E 000°02'0 0.3
2017-Sep-16 17:00N 05°37' E 000°02'0 0.0
2017-Sep-16 16:30N 05°37' E 000°02'0 0.0
2017-Sep-16 16:00N 05°37' E 000°02'0 0.0
2017-Sep-16 15:27N 05°37' E 000°02'0 0.0
2017-Sep-16 15:00N 05°37' E 000°02'0 0.0
2017-Sep-16 14:30N 05°37' E 000°02'0 0.0
2017-Sep-16 14:00N 05°37' E 000°02'0 0.0
2017-Sep-16 13:30N 05°37' E 000°02'0 0.0
2017-Sep-16 13:00N 05°37' E 000°02'0 0.0
2017-Sep-16 12:30N 05°37' E 000°02'0 0.0
2017-Sep-16 12:00N 05°37' E 000°02'0 0.0
2017-Sep-16 11:30N 05°37' E 000°02'0 0.0
2017-Sep-16 11:00N 05°37' E 000°02'0 0.0
2017-Sep-16 10:30N 05°37' E 000°02'0 0.0
2017-Sep-16 10:00N 05°37' E 000°02'0 0.0
2017-Sep-16 09:30N 05°37' E 000°02'0 0.0
2017-Sep-16 09:00N 05°37' E 000°02'0 0.0
2017-Sep-16 08:30N 05°37' E 000°02'0 0.0
2017-Sep-16 08:00N 05°37' E 000°02'0 0.0
2017-Sep-16 07:30N 05°37' E 000°02'0 0.0
2017-Sep-16 07:00N 05°37' E 000°02'0 0.3
2017-Sep-16 06:30N 05°37' E 000°02'4 7.2
2017-Sep-16 06:00N 05°35' E 000°05'1 1.8
2017-Sep-16 05:19N 05°34' E 000°05'1 4.3
2017-Sep-16 05:00N 05°34' E 000°03'2 4.3
2017-Sep-16 04:30N 05°33' E 000°01'4 0.9
2017-Sep-15 23:46N 05°33' E 000°06'1 2.7
2017-Sep-15 23:23N 05°33' E 000°04'1 2.1
2017-Sep-15 23:00N 05°33' E 000°04'2 4.3
2017-Sep-15 22:30N 05°33' E 000°02'8 0.5
2017-Sep-15 06:45N 05°35' E 000°09'2 6.7
2017-Sep-15 06:30N 05°35' E 000°07'4 8.6
2017-Sep-15 06:00N 05°33' E 000°03'1 1.8
2017-Sep-15 05:30N 05°33' E 000°03'2 4.4
2017-Sep-15 05:00N 05°33' E 000°00'2 4.3
2017-Sep-15 04:29N 05°31' W 000°02'7 2.6
2017-Sep-15 01:45N 05°33' E 000°05'1 3.2
2017-Sep-15 01:23N 05°33' E 000°04'2 4.3
2017-Sep-15 01:00N 05°33' E 000°03'2 4.2
2017-Sep-15 00:30N 05°32' E 000°01'2 4.3
2017-Sep-15 00:00N 05°32' W 000°01'7 1.8
2017-Sep-14 20:10N 05°33' E 000°05'0 0.8
2017-Sep-14 19:55N 05°33' E 000°06'4 9.3
2017-Sep-14 19:30N 05°35' E 000°02'1 1.1
2017-Sep-14 18:55N 05°35' E 000°02'0 0.0
2017-Sep-14 18:28N 05°35' E 000°02'0 0.0
2017-Sep-14 17:58N 05°35' E 000°02'0 0.0
2017-Sep-14 17:19N 05°35' E 000°02'0 0.0
2017-Sep-14 16:58N 05°35' E 000°02'0 0.0
2017-Sep-14 16:30N 05°35' E 000°02'3 5.9
2017-Sep-14 16:00N 05°38' E 000°01'0 0.4
2017-Sep-14 15:29N 05°38' E 000°01'0 0.0
2017-Sep-14 14:59N 05°38' E 000°01'0 0.0
2017-Sep-14 14:29N 05°38' E 000°01'0 0.0
2017-Sep-14 13:59N 05°38' E 000°01'0 0.0
2017-Sep-14 13:29N 05°38' E 000°01'0 0.0
2017-Sep-14 12:59N 05°38' E 000°01'0 0.0
2017-Sep-14 12:29N 05°38' E 000°01'0 0.0
2017-Sep-14 11:59N 05°38' E 000°01'0 0.0
2017-Sep-14 11:29N 05°38' E 000°01'0 0.0
2017-Sep-14 10:59N 05°38' E 000°01'0 0.0
2017-Sep-14 10:26N 05°38' E 000°01'0 0.0
2017-Sep-14 09:59N 05°38' E 000°01'0 0.0
2017-Sep-14 09:29N 05°38' E 000°01'0 0.0
2017-Sep-14 08:59N 05°38' E 000°01'0 0.0
2017-Sep-13 16:31N 05°38' E 000°01'0 0.0
2017-Sep-13 16:28N 05°38' E 000°01'0 0.0
2017-Sep-13 15:58N 05°38' E 000°01'0 0.0
2017-Sep-13 15:28N 05°38' E 000°01'0 0.0
2017-Sep-13 14:58N 05°38' E 000°01'0 0.0
2017-Sep-13 14:28N 05°38' E 000°01'0 0.0
2017-Sep-13 13:58N 05°38' E 000°01'0 0.0
2017-Sep-13 13:28N 05°38' E 000°01'0 0.0
2017-Sep-13 12:58N 05°38' E 000°01'0 0.0
2017-Sep-13 12:28N 05°38' E 000°01'0 0.0
2017-Sep-13 11:58N 05°38' E 000°01'0 0.0
2017-Sep-13 11:28N 05°38' E 000°01'0 0.0
2017-Sep-13 10:58N 05°38' E 000°01'0 0.0
2017-Sep-13 10:28N 05°38' E 000°01'0 0.0
2017-Sep-13 09:58N 05°38' E 000°01'0 0.0
2017-Sep-13 09:28N 05°38' E 000°01'0 0.0
2017-Sep-13 08:58N 05°38' E 000°01'0 0.0
2017-Sep-13 08:28N 05°38' E 000°01'0 0.0
2017-Sep-13 07:58N 05°38' E 000°01'0 0.0
2017-Sep-12 16:05N 05°38' E 000°01'0 0.0
2017-Sep-12 15:59N 05°38' E 000°01'0 0.0
2017-Sep-12 15:29N 05°38' E 000°01'0 0.0
2017-Sep-12 14:59N 05°38' E 000°01'0 0.0
2017-Sep-12 14:29N 05°38' E 000°01'0 0.0
2017-Sep-12 13:59N 05°38' E 000°01'0 0.0
2017-Sep-12 13:29N 05°38' E 000°01'0 0.0
2017-Sep-12 12:59N 05°38' E 000°01'0 0.0
2017-Sep-12 12:29N 05°38' E 000°01'0 0.0
2017-Sep-12 11:59N 05°38' E 000°01'0 0.0
2017-Sep-12 11:29N 05°38' E 000°01'0 0.0
2017-Sep-12 10:59N 05°38' E 000°01'0 0.0
2017-Sep-12 10:29N 05°38' E 000°01'0 0.0
2017-Sep-12 09:59N 05°38' E 000°01'0 0.0
2017-Sep-12 09:29N 05°38' E 000°01'0 0.0
2017-Sep-12 08:59N 05°38' E 000°01'0 0.0
2017-Sep-12 08:29N 05°38' E 000°01'0 0.0
2017-Sep-12 07:59N 05°38' E 000°01'0 0.0
2017-Sep-12 07:29N 05°38' E 000°01'0 0.0
2017-Sep-11 18:13N 05°38' E 000°01'0 0.0
2017-Sep-11 17:58N 05°38' E 000°01'0 0.0
2017-Sep-11 17:28N 05°38' E 000°01'0 0.0
2017-Sep-11 16:52N 05°38' E 000°01'0 0.0
2017-Sep-11 16:28N 05°38' E 000°01'0 0.0
2017-Sep-11 15:58N 05°38' E 000°01'0 0.0
2017-Sep-11 15:28N 05°38' E 000°01'0 0.0
2017-Sep-11 14:58N 05°38' E 000°01'0 0.0
2017-Sep-11 14:28N 05°38' E 000°01'0 0.0
2017-Sep-11 13:58N 05°38' E 000°01'0 0.0
2017-Sep-11 13:25N 05°38' E 000°01'0 0.0
2017-Sep-11 12:58N 05°38' E 000°01'0 0.0
2017-Sep-11 12:28N 05°38' E 000°01'0 0.0
2017-Sep-11 11:58N 05°38' E 000°01'0 0.0
2017-Sep-11 11:28N 05°38' E 000°01'0 0.0
2017-Sep-11 10:58N 05°38' E 000°01'0 0.0
2017-Sep-11 10:28N 05°38' E 000°01'0 0.0
2017-Sep-11 09:58N 05°38' E 000°01'0 0.0
2017-Sep-11 09:28N 05°38' E 000°01'0 0.0
2017-Sep-11 08:58N 05°38' E 000°01'0 0.0
2017-Sep-11 08:28N 05°38' E 000°01'0 0.0
2017-Sep-11 07:58N 05°38' E 000°01'0 0.0
2017-Sep-11 07:28N 05°38' E 000°01'0 0.0
2017-Sep-11 06:58N 05°38' E 000°01'0 0.0
2017-Sep-11 06:28N 05°38' E 000°01'0 0.0
2017-Sep-10 16:13N 05°38' E 000°01'0 0.0
2017-Sep-10 15:59N 05°38' E 000°01'0 0.0
2017-Sep-10 15:28N 05°38' E 000°01'0 0.0
2017-Sep-10 14:58N 05°38' E 000°01'0 0.0
2017-Sep-10 13:58N 05°38' E 000°01'0 0.0
2017-Sep-10 13:28N 05°38' E 000°01'0 0.0
2017-Sep-10 12:59N 05°38' E 000°01'0 0.0
2017-Sep-10 12:28N 05°38' E 000°01'0 0.0
2017-Sep-10 11:59N 05°38' E 000°01'0 0.0
2017-Sep-10 11:29N 05°38' E 000°01'0 0.0
2017-Sep-10 10:58N 05°38' E 000°01'0 0.0
2017-Sep-10 10:28N 05°38' E 000°01'0 0.0
2017-Sep-10 09:59N 05°38' E 000°01'0 0.0
2017-Sep-10 09:28N 05°38' E 000°01'0 0.0
2017-Sep-10 08:58N 05°38' E 000°01'0 0.0
2017-Sep-10 08:29N 05°38' E 000°01'0 0.0
2017-Sep-10 07:58N 05°38' E 000°01'1 2.1
2017-Sep-10 07:30N 05°37' E 000°01'1 1.4
2017-Sep-10 07:00N 05°37' E 000°01'2 3.9
2017-Sep-10 06:30N 05°35' E 000°01'1 1.3
2017-Sep-10 06:00N 05°35' E 000°00'5 1.4
2017-Sep-10 02:01N 05°33' E 000°05'1 4.2
2017-Sep-10 01:52N 05°33' E 000°05'2 4.3
2017-Sep-10 01:30N 05°33' E 000°03'2 4.2
2017-Sep-10 01:00N 05°33' E 000°01'2 4.2
2017-Sep-10 00:24N 05°32' W 000°01'7 2.0
2017-Sep-09 21:03N 05°33' E 000°05'0 1.1
2017-Sep-09 21:00N 05°33' E 000°05'2 3.9
2017-Sep-09 20:30N 05°33' E 000°03'2 4.3
2017-Sep-09 20:00N 05°33' E 000°01'2 4.3
2017-Sep-09 19:30N 05°32' W 000°01'106 7.0
2017-Sep-09 04:23N 04°49' W 001°38'3 9.1
2017-Sep-09 04:00N 04°48' W 001°42'5 9.1
2017-Sep-09 03:30N 04°46' W 001°46'  
Track history (hours):
 
Tides and Currents Weather Stations Pressure Air Temp Water Temp Dewpoint Dewpoint Depression Visibility Wind Speed Wind Dir Waves Ship Positions

Long Xiang 606

Last reported at 2017-Sep-16 23:39 UTC. Time now 2017-Sep-25 06:13 UTC.
Position N 05°34' E 000°06'.
Warning: this ship's position is 8 days out of date.

Length 43 m.

Type: Fishing. MMSI: 627220000.

Date/timePositionNaut miles runAvg speedWind from/ knotsBaromVisibWave heightAir tempDewpointWater temp
2017-Sep-16 23:39N 05°34' E 000°06'0 2.5
2017-Sep-16 23:27N 05°34' E 000°05'1 1.5
2017-Sep-16 22:59N 05°34' E 000°05'2 4.4
2017-Sep-16 22:30N 05°33' E 000°03'3 0.6
2017-Sep-16 17:52N 05°36' E 000°05'3 9.8
2017-Sep-16 17:31N 05°37' E 000°02'0 0.3
2017-Sep-16 17:00N 05°37' E 000°02'0 0.0
2017-Sep-16 16:30N 05°37' E 000°02'0 0.0
2017-Sep-16 16:00N 05°37' E 000°02'0 0.0
2017-Sep-16 15:27N 05°37' E 000°02'0 0.0
2017-Sep-16 15:00N 05°37' E 000°02'0 0.0
2017-Sep-16 14:30N 05°37' E 000°02'0 0.0
2017-Sep-16 14:00N 05°37' E 000°02'0 0.0
2017-Sep-16 13:30N 05°37' E 000°02'0 0.0
2017-Sep-16 13:00N 05°37' E 000°02'0 0.0
2017-Sep-16 12:30N 05°37' E 000°02'0 0.0
2017-Sep-16 12:00N 05°37' E 000°02'0 0.0
2017-Sep-16 11:30N 05°37' E 000°02'0 0.0
2017-Sep-16 11:00N 05°37' E 000°02'0 0.0
2017-Sep-16 10:30N 05°37' E 000°02'0 0.0
2017-Sep-16 10:00N 05°37' E 000°02'0 0.0
2017-Sep-16 09:30N 05°37' E 000°02'0 0.0
2017-Sep-16 09:00N 05°37' E 000°02'0 0.0
2017-Sep-16 08:30N 05°37' E 000°02'0 0.0
2017-Sep-16 08:00N 05°37' E 000°02'0 0.0
2017-Sep-16 07:30N 05°37' E 000°02'0 0.0
2017-Sep-16 07:00N 05°37' E 000°02'0 0.3
2017-Sep-16 06:30N 05°37' E 000°02'4 7.2
2017-Sep-16 06:00N 05°35' E 000°05'1 1.8
2017-Sep-16 05:19N 05°34' E 000°05'1 4.3
2017-Sep-16 05:00N 05°34' E 000°03'2 4.3
2017-Sep-16 04:30N 05°33' E 000°01'4 0.9
2017-Sep-15 23:46N 05°33' E 000°06'1 2.7
2017-Sep-15 23:23N 05°33' E 000°04'1 2.1
2017-Sep-15 23:00N 05°33' E 000°04'2 4.3
2017-Sep-15 22:30N 05°33' E 000°02'8 0.5
2017-Sep-15 06:45N 05°35' E 000°09'2 6.7
2017-Sep-15 06:30N 05°35' E 000°07'4 8.6
2017-Sep-15 06:00N 05°33' E 000°03'1 1.8
2017-Sep-15 05:30N 05°33' E 000°03'2 4.4
2017-Sep-15 05:00N 05°33' E 000°00'2 4.3
2017-Sep-15 04:29N 05°31' W 000°02'7 2.6
2017-Sep-15 01:45N 05°33' E 000°05'1 3.2
2017-Sep-15 01:23N 05°33' E 000°04'2 4.3
2017-Sep-15 01:00N 05°33' E 000°03'2 4.2
2017-Sep-15 00:30N 05°32' E 000°01'2 4.3
2017-Sep-15 00:00N 05°32' W 000°01'7 1.8
2017-Sep-14 20:10N 05°33' E 000°05'0 0.8
2017-Sep-14 19:55N 05°33' E 000°06'4 9.3
2017-Sep-14 19:30N 05°35' E 000°02'1 1.1
2017-Sep-14 18:55N 05°35' E 000°02'0 0.0
2017-Sep-14 18:28N 05°35' E 000°02'0 0.0
2017-Sep-14 17:58N 05°35' E 000°02'0 0.0
2017-Sep-14 17:19N 05°35' E 000°02'0 0.0
2017-Sep-14 16:58N 05°35' E 000°02'0 0.0
2017-Sep-14 16:30N 05°35' E 000°02'3 5.9
2017-Sep-14 16:00N 05°38' E 000°01'0 0.4
2017-Sep-14 15:29N 05°38' E 000°01'0 0.0
2017-Sep-14 14:59N 05°38' E 000°01'0 0.0
2017-Sep-14 14:29N 05°38' E 000°01'0 0.0
2017-Sep-14 13:59N 05°38' E 000°01'0 0.0
2017-Sep-14 13:29N 05°38' E 000°01'0 0.0
2017-Sep-14 12:59N 05°38' E 000°01'0 0.0
2017-Sep-14 12:29N 05°38' E 000°01'0 0.0
2017-Sep-14 11:59N 05°38' E 000°01'0 0.0
2017-Sep-14 11:29N 05°38' E 000°01'0 0.0
2017-Sep-14 10:59N 05°38' E 000°01'0 0.0
2017-Sep-14 10:26N 05°38' E 000°01'0 0.0
2017-Sep-14 09:59N 05°38' E 000°01'0 0.0
2017-Sep-14 09:29N 05°38' E 000°01'0 0.0
2017-Sep-14 08:59N 05°38' E 000°01'0 0.0
2017-Sep-13 16:31N 05°38' E 000°01'0 0.0
2017-Sep-13 16:28N 05°38' E 000°01'0 0.0
2017-Sep-13 15:58N 05°38' E 000°01'0 0.0
2017-Sep-13 15:28N 05°38' E 000°01'0 0.0
2017-Sep-13 14:58N 05°38' E 000°01'0 0.0
2017-Sep-13 14:28N 05°38' E 000°01'0 0.0
2017-Sep-13 13:58N 05°38' E 000°01'0 0.0
2017-Sep-13 13:28N 05°38' E 000°01'0 0.0
2017-Sep-13 12:58N 05°38' E 000°01'0 0.0
2017-Sep-13 12:28N 05°38' E 000°01'0 0.0
2017-Sep-13 11:58N 05°38' E 000°01'0 0.0
2017-Sep-13 11:28N 05°38' E 000°01'0 0.0
2017-Sep-13 10:58N 05°38' E 000°01'0 0.0
2017-Sep-13 10:28N 05°38' E 000°01'0 0.0
2017-Sep-13 09:58N 05°38' E 000°01'0 0.0
2017-Sep-13 09:28N 05°38' E 000°01'0 0.0
2017-Sep-13 08:58N 05°38' E 000°01'0 0.0
2017-Sep-13 08:28N 05°38' E 000°01'0 0.0
2017-Sep-13 07:58N 05°38' E 000°01'0 0.0
2017-Sep-12 16:05N 05°38' E 000°01'0 0.0
2017-Sep-12 15:59N 05°38' E 000°01'0 0.0
2017-Sep-12 15:29N 05°38' E 000°01'0 0.0
2017-Sep-12 14:59N 05°38' E 000°01'0 0.0
2017-Sep-12 14:29N 05°38' E 000°01'0 0.0
2017-Sep-12 13:59N 05°38' E 000°01'0 0.0
2017-Sep-12 13:29N 05°38' E 000°01'0 0.0
2017-Sep-12 12:59N 05°38' E 000°01'0 0.0
2017-Sep-12 12:29N 05°38' E 000°01'0 0.0
2017-Sep-12 11:59N 05°38' E 000°01'0 0.0
2017-Sep-12 11:29N 05°38' E 000°01'0 0.0
2017-Sep-12 10:59N 05°38' E 000°01'0 0.0
2017-Sep-12 10:29N 05°38' E 000°01'0 0.0
2017-Sep-12 09:59N 05°38' E 000°01'0 0.0
2017-Sep-12 09:29N 05°38' E 000°01'0 0.0
2017-Sep-12 08:59N 05°38' E 000°01'0 0.0
2017-Sep-12 08:29N 05°38' E 000°01'0 0.0
2017-Sep-12 07:59N 05°38' E 000°01'0 0.0
2017-Sep-12 07:29N 05°38' E 000°01'0 0.0
2017-Sep-11 18:13N 05°38' E 000°01'0 0.0
2017-Sep-11 17:58N 05°38' E 000°01'0 0.0
2017-Sep-11 17:28N 05°38' E 000°01'0 0.0
2017-Sep-11 16:52N 05°38' E 000°01'0 0.0
2017-Sep-11 16:28N 05°38' E 000°01'0 0.0
2017-Sep-11 15:58N 05°38' E 000°01'0 0.0
2017-Sep-11 15:28N 05°38' E 000°01'0 0.0
2017-Sep-11 14:58N 05°38' E 000°01'0 0.0
2017-Sep-11 14:28N 05°38' E 000°01'0 0.0
2017-Sep-11 13:58N 05°38' E 000°01'0 0.0
2017-Sep-11 13:25N 05°38' E 000°01'0 0.0
2017-Sep-11 12:58N 05°38' E 000°01'0 0.0
2017-Sep-11 12:28N 05°38' E 000°01'0 0.0
2017-Sep-11 11:58N 05°38' E 000°01'0 0.0
2017-Sep-11 11:28N 05°38' E 000°01'0 0.0
2017-Sep-11 10:58N 05°38' E 000°01'0 0.0
2017-Sep-11 10:28N 05°38' E 000°01'0 0.0
2017-Sep-11 09:58N 05°38' E 000°01'0 0.0
2017-Sep-11 09:28N 05°38' E 000°01'0 0.0
2017-Sep-11 08:58N 05°38' E 000°01'0 0.0
2017-Sep-11 08:28N 05°38' E 000°01'0 0.0
2017-Sep-11 07:58N 05°38' E 000°01'0 0.0
2017-Sep-11 07:28N 05°38' E 000°01'0 0.0
2017-Sep-11 06:58N 05°38' E 000°01'0 0.0
2017-Sep-11 06:28N 05°38' E 000°01'0 0.0
2017-Sep-10 16:13N 05°38' E 000°01'0 0.0
2017-Sep-10 15:59N 05°38' E 000°01'0 0.0
2017-Sep-10 15:28N 05°38' E 000°01'0 0.0
2017-Sep-10 14:58N 05°38' E 000°01'0 0.0
2017-Sep-10 13:58N 05°38' E 000°01'0 0.0
2017-Sep-10 13:28N 05°38' E 000°01'0 0.0
2017-Sep-10 12:59N 05°38' E 000°01'0 0.0
2017-Sep-10 12:28N 05°38' E 000°01'0 0.0
2017-Sep-10 11:59N 05°38' E 000°01'0 0.0
2017-Sep-10 11:29N 05°38' E 000°01'0 0.0
2017-Sep-10 10:58N 05°38' E 000°01'0 0.0
2017-Sep-10 10:28N 05°38' E 000°01'0 0.0
2017-Sep-10 09:59N 05°38' E 000°01'0 0.0
2017-Sep-10 09:28N 05°38' E 000°01'0 0.0
2017-Sep-10 08:58N 05°38' E 000°01'0 0.0
2017-Sep-10 08:29N 05°38' E 000°01'0 0.0
2017-Sep-10 07:58N 05°38' E 000°01'1 2.1
2017-Sep-10 07:30N 05°37' E 000°01'1 1.4
2017-Sep-10 07:00N 05°37' E 000°01'2 3.9
2017-Sep-10 06:30N 05°35' E 000°01'1 1.3
2017-Sep-10 06:00N 05°35' E 000°00'5 1.4
2017-Sep-10 02:01N 05°33' E 000°05'1 4.2
2017-Sep-10 01:52N 05°33' E 000°05'2 4.3
2017-Sep-10 01:30N 05°33' E 000°03'2 4.2
2017-Sep-10 01:00N 05°33' E 000°01'2 4.2
2017-Sep-10 00:24N 05°32' W 000°01'7 2.0
2017-Sep-09 21:03N 05°33' E 000°05'0 1.1
2017-Sep-09 21:00N 05°33' E 000°05'2 3.9
2017-Sep-09 20:30N 05°33' E 000°03'2 4.3
2017-Sep-09 20:00N 05°33' E 000°01'2 4.3
2017-Sep-09 19:30N 05°32' W 000°01'106 7.0
2017-Sep-09 04:23N 04°49' W 001°38'3 9.1
2017-Sep-09 04:00N 04°48' W 001°42'5 9.1
2017-Sep-09 03:30N 04°46' W 001°46'  

Dump ship's entire track history